Time;durP1;ratioP1;P1;durP2;ratioP2;P2;SDS_P1;SDS_P2;PMS_P1;PMS_P2;Temp;Humidity;BMP_temperature;BMP_pressure;BME280_temperature;BME280_humidity;BME280_pressure;Samples;Min_cycle;Max_cycle;Signal;HPM_P1;HPM_P2
2023/01/09 00:00:10;;;;;;;;;2.00;0.00;;;;;;;;5081887;28;61754;-80
2023/01/09 00:02:39;;;;;;;;;0.00;0.00;;;;;;;;5083223;27;61918;-80
2023/01/09 00:05:05;;;;;;;;;0.00;0.00;;;;;;;;5081863;28;61903;-79
2023/01/09 00:07:30;;;;;;;;;0.00;0.00;;;;;;;;5082379;28;61907;-79
2023/01/09 00:09:55;;;;;;;;;0.00;0.00;;;;;;;;5082956;28;61943;-80
2023/01/09 00:12:20;;;;;;;;;0.00;0.00;;;;;;;;5080465;28;61852;-79
2023/01/09 00:14:46;;;;;;;;;0.00;0.00;;;;;;;;5083250;28;61747;-79
2023/01/09 00:17:11;;;;;;;;;0.00;0.00;;;;;;;;5082178;28;63332;-79
2023/01/09 00:19:36;;;;;;;;;0.00;0.00;;;;;;;;5081487;28;62033;-80
2023/01/09 00:22:01;;;;;;;;;0.00;0.00;;;;;;;;5083333;27;61825;-81
2023/01/09 00:24:27;;;;;;;;;1.00;1.00;;;;;;;;5083155;27;61753;-80
2023/01/09 00:26:52;;;;;;;;;1.50;0.00;;;;;;;;5080842;28;63768;-79
2023/01/09 00:29:17;;;;;;;;;1.50;1.50;;;;;;;;5082680;28;61899;-80
2023/01/09 00:31:42;;;;;;;;;0.00;0.00;;;;;;;;5082700;28;62072;-80
2023/01/09 00:34:09;;;;;;;;;0.00;0.00;;;;;;;;5083132;28;61654;-79
2023/01/09 00:36:34;;;;;;;;;0.25;0.00;;;;;;;;5082205;27;61987;-80
2023/01/09 00:39:00;;;;;;;;;0.00;0.00;;;;;;;;5081438;28;61778;-79
2023/01/09 00:41:30;;;;;;;;;0.00;0.00;;;;;;;;5082182;27;61789;-79
2023/01/09 00:44:02;;;;;;;;;1.00;1.00;;;;;;;;5082971;28;61956;-78
2023/01/09 00:46:30;;;;;;;;;1.00;0.00;;;;;;;;5081800;28;62063;-79
2023/01/09 00:48:55;;;;;;;;;0.00;0.00;;;;;;;;5080986;28;62182;-79
2023/01/09 00:51:21;;;;;;;;;1.50;0.50;;;;;;;;5082490;28;61876;-79
2023/01/09 00:53:48;;;;;;;;;0.00;0.00;;;;;;;;5082905;27;61821;-79
2023/01/09 00:56:15;;;;;;;;;1.00;1.00;;;;;;;;5080419;28;63900;-79
2023/01/09 00:58:41;;;;;;;;;0.75;0.00;;;;;;;;5082454;28;61901;-80
2023/01/09 01:01:06;;;;;;;;;4.25;1.00;;;;;;;;5082295;28;61986;-79
2023/01/09 01:03:32;;;;;;;;;0.00;0.00;;;;;;;;5082282;28;61790;-79
2023/01/09 01:08:41;;;;;;;;;2.50;1.00;;;;;;;;5082156;28;61697;-79
2023/01/09 01:11:08;;;;;;;;;1.50;0.00;;;;;;;;5082510;28;61823;-80
2023/01/09 01:13:34;;;;;;;;;0.75;0.75;;;;;;;;5082161;28;61747;-80
2023/01/09 01:16:02;;;;;;;;;2.00;0.00;;;;;;;;5081491;28;61738;-80
2023/01/09 01:18:27;;;;;;;;;0.50;0.50;;;;;;;;5082319;28;61939;-80
2023/01/09 01:20:52;;;;;;;;;1.00;0.00;;;;;;;;5082176;27;61841;-79
2023/01/09 01:23:18;;;;;;;;;1.00;0.00;;;;;;;;5083557;28;61741;-80
2023/01/09 01:25:43;;;;;;;;;2.00;0.00;;;;;;;;5083582;28;63467;-80
2023/01/09 01:28:09;;;;;;;;;0.00;0.00;;;;;;;;5085287;28;61629;-79
2023/01/09 01:30:38;;;;;;;;;1.50;0.00;;;;;;;;5083930;28;61643;-80
2023/01/09 01:33:04;;;;;;;;;1.00;0.00;;;;;;;;5085898;28;61834;-79
2023/01/09 01:35:29;;;;;;;;;5.75;0.00;;;;;;;;5083418;28;65076;-79
2023/01/09 01:37:54;;;;;;;;;0.75;0.75;;;;;;;;5085619;27;61942;-79
2023/01/09 01:40:20;;;;;;;;;2.00;0.00;;;;;;;;5083998;28;61903;-79
2023/01/09 01:42:49;;;;;;;;;0.00;0.00;;;;;;;;5085296;27;62114;-79
2023/01/09 01:45:16;;;;;;;;;1.00;0.00;;;;;;;;5083352;28;64067;-79
2023/01/09 01:47:42;;;;;;;;;0.00;0.00;;;;;;;;5085148;28;61710;-79
2023/01/09 01:50:14;;;;;;;;;0.00;0.00;;;;;;;;5085025;28;61718;-79
2023/01/09 01:52:40;;;;;;;;;0.00;0.00;;;;;;;;5085431;28;61842;-79
2023/01/09 01:55:07;;;;;;;;;1.00;0.00;;;;;;;;5083406;28;65193;-79
2023/01/09 01:57:33;;;;;;;;;0.00;0.00;;;;;;;;5084939;28;61670;-79
2023/01/09 02:00:01;;;;;;;;;0.75;0.00;;;;;;;;5085308;27;62105;-79
2023/01/09 02:02:28;;;;;;;;;2.00;0.00;;;;;;;;5084154;28;61758;-80
2023/01/09 02:04:54;;;;;;;;;0.00;0.00;;;;;;;;5082816;28;64966;-79
2023/01/09 02:07:20;;;;;;;;;1.25;0.00;;;;;;;;5085123;28;61921;-79
2023/01/09 02:09:45;;;;;;;;;0.75;0.75;;;;;;;;5084657;28;62167;-79
2023/01/09 02:12:28;;;;;;;;;1.00;0.00;;;;;;;;5083726;28;61949;-80
2023/01/09 02:14:54;;;;;;;;;3.00;0.00;;;;;;;;5084104;28;61801;-79
2023/01/09 02:17:28;;;;;;;;;0.25;0.00;;;;;;;;5085017;28;61796;-79
2023/01/09 02:20:12;;;;;;;;;1.50;0.75;;;;;;;;5084630;28;61757;-79
2023/01/09 02:22:46;;;;;;;;;1.50;0.00;;;;;;;;5084983;27;61986;-80
2023/01/09 02:25:14;;;;;;;;;0.00;0.00;;;;;;;;5082888;28;63885;-80
2023/01/09 02:28:05;;;;;;;;;2.50;0.00;;;;;;;;5084090;28;61845;-80
2023/01/09 02:30:31;;;;;;;;;0.50;0.50;;;;;;;;5083426;28;61926;-79
2023/01/09 02:32:59;;;;;;;;;1.00;0.00;;;;;;;;5084628;28;62006;-79
2023/01/09 02:35:35;;;;;;;;;0.00;0.00;;;;;;;;5081866;28;63876;-80
2023/01/09 02:38:07;;;;;;;;;2.25;0.25;;;;;;;;5084759;28;61870;-80
2023/01/09 02:40:40;;;;;;;;;4.50;1.00;;;;;;;;5084571;28;61867;-79
2023/01/09 02:43:06;;;;;;;;;1.25;1.00;;;;;;;;5084358;27;62052;-80
2023/01/09 02:45:31;;;;;;;;;1.50;0.00;;;;;;;;5083797;28;62800;-80
2023/01/09 02:47:56;;;;;;;;;0.25;0.25;;;;;;;;5084331;28;61743;-79
2023/01/09 02:50:25;;;;;;;;;2.50;0.25;;;;;;;;5082865;28;61804;-79
2023/01/09 02:53:16;;;;;;;;;0.50;0.50;;;;;;;;5084257;28;61931;-80
2023/01/09 02:56:02;;;;;;;;;2.00;1.00;;;;;;;;5082249;28;64108;-79
2023/01/09 02:58:46;;;;;;;;;2.25;1.00;;;;;;;;5084189;27;61932;-79
2023/01/09 03:01:12;;;;;;;;;2.00;0.00;;;;;;;;5084438;28;61659;-79
2023/01/09 03:03:43;;;;;;;;;2.00;0.00;;;;;;;;5084331;28;61726;-79
2023/01/09 03:06:32;;;;;;;;;1.50;0.25;;;;;;;;5082224;28;64052;-79
2023/01/09 03:09:01;;;;;;;;;1.00;0.00;;;;;;;;5080504;28;62134;-79
2023/01/09 03:11:30;;;;;;;;;1.75;0.25;;;;;;;;5082295;28;62031;-79
2023/01/09 03:13:58;;;;;;;;;1.00;0.00;;;;;;;;5084352;28;61699;-79
2023/01/09 03:16:28;;;;;;;;;3.00;1.00;;;;;;;;5083173;28;62060;-79
2023/01/09 03:18:54;;;;;;;;;0.75;0.00;;;;;;;;5082206;28;61807;-79
2023/01/09 03:21:20;;;;;;;;;0.00;0.00;;;;;;;;5084191;27;61636;-79
2023/01/09 03:23:46;;;;;;;;;1.00;0.50;;;;;;;;5084064;28;61928;-79
2023/01/09 03:26:11;;;;;;;;;1.00;0.00;;;;;;;;5082983;28;61868;-80
2023/01/09 03:28:36;;;;;;;;;0.75;0.00;;;;;;;;5083730;28;62117;-79
2023/01/09 03:31:01;;;;;;;;;1.50;0.00;;;;;;;;5082285;28;62063;-79
2023/01/09 03:33:27;;;;;;;;;0.25;0.25;;;;;;;;5084007;28;62060;-80
2023/01/09 03:35:53;;;;;;;;;3.50;0.00;;;;;;;;5083061;28;61858;-79
2023/01/09 03:38:18;;;;;;;;;3.00;0.00;;;;;;;;5083824;28;61686;-79
2023/01/09 03:40:43;;;;;;;;;6.00;0.00;;;;;;;;5090627;27;61968;-79
2023/01/09 03:43:09;;;;;;;;;2.25;0.50;;;;;;;;5103946;27;61753;-79
2023/01/09 03:45:34;;;;;;;;;1.00;0.00;;;;;;;;5103369;27;61726;-80
2023/01/09 03:47:59;;;;;;;;;1.00;0.00;;;;;;;;5102466;27;61848;-79
2023/01/09 03:50:24;;;;;;;;;1.50;0.00;;;;;;;;5103616;27;61940;-80
2023/01/09 03:52:50;;;;;;;;;2.25;0.00;;;;;;;;5104132;27;61967;-79
2023/01/09 03:55:15;;;;;;;;;2.00;0.75;;;;;;;;5102928;27;62009;-79
2023/01/09 03:57:40;;;;;;;;;0.00;0.00;;;;;;;;5103765;27;61674;-79
2023/01/09 04:00:07;;;;;;;;;0.00;0.00;;;;;;;;5103819;27;61836;-79
2023/01/09 04:02:32;;;;;;;;;3.25;0.00;;;;;;;;5102685;27;61807;-79
2023/01/09 04:04:57;;;;;;;;;0.75;0.00;;;;;;;;5102955;27;61995;-79
2023/01/09 04:07:23;;;;;;;;;1.50;1.00;;;;;;;;5102356;27;61914;-79
2023/01/09 04:09:48;;;;;;;;;4.50;0.75;;;;;;;;5103088;27;61855;-79
2023/01/09 04:12:13;;;;;;;;;1.00;0.25;;;;;;;;5102131;27;61924;-79
2023/01/09 04:14:38;;;;;;;;;0.75;0.00;;;;;;;;5103074;27;62755;-79
2023/01/09 04:17:04;;;;;;;;;3.25;0.00;;;;;;;;5103209;27;61790;-80
2023/01/09 04:19:29;;;;;;;;;0.00;0.00;;;;;;;;5101977;27;61835;-79
2023/01/09 04:21:54;;;;;;;;;0.50;0.50;;;;;;;;5103793;27;61820;-80
2023/01/09 04:24:19;;;;;;;;;0.00;0.00;;;;;;;;5102290;27;61783;-80
2023/01/09 04:26:45;;;;;;;;;0.00;0.00;;;;;;;;5103418;27;61811;-79
2023/01/09 04:29:10;;;;;;;;;1.75;0.00;;;;;;;;5101796;27;61871;-79
2023/01/09 04:31:35;;;;;;;;;1.00;0.00;;;;;;;;5103546;27;62052;-80
2023/01/09 04:34:00;;;;;;;;;0.50;0.00;;;;;;;;5102562;27;61736;-79
2023/01/09 04:36:26;;;;;;;;;2.00;0.00;;;;;;;;5103350;27;61691;-79
2023/01/09 04:38:51;;;;;;;;;0.00;0.00;;;;;;;;5103146;27;61716;-80
2023/01/09 04:41:47;;;;;;;;;0.00;0.00;;;;;;;;5102813;27;62190;-79
2023/01/09 04:44:02;;;;;;;;;0.00;0.00;;;;;;;;5102685;27;62091;-79
2023/01/09 04:46:27;;;;;;;;;1.00;0.00;;;;;;;;5102891;27;61746;-80
2023/01/09 04:48:52;;;;;;;;;0.00;0.00;;;;;;;;5101477;27;61956;-79
2023/01/09 04:51:17;;;;;;;;;0.00;0.00;;;;;;;;5101713;27;62135;-80
2023/01/09 04:53:43;;;;;;;;;0.00;0.00;;;;;;;;5102248;27;61865;-79
2023/01/09 04:56:08;;;;;;;;;2.00;1.00;;;;;;;;5103015;27;61730;-80
2023/01/09 04:58:33;;;;;;;;;1.00;1.00;;;;;;;;5105582;27;62026;-80
2023/01/09 05:00:59;;;;;;;;;0.00;0.00;;;;;;;;5106597;27;61692;-80
2023/01/09 05:03:24;;;;;;;;;0.00;0.00;;;;;;;;5105676;27;61690;-80
2023/01/09 05:05:49;;;;;;;;;1.00;0.00;;;;;;;;5105093;27;61952;-80
2023/01/09 05:08:14;;;;;;;;;1.00;0.00;;;;;;;;5104672;27;61940;-79
2023/01/09 05:10:40;;;;;;;;;2.00;0.00;;;;;;;;5104869;27;61986;-79
2023/01/09 05:13:05;;;;;;;;;0.25;0.00;;;;;;;;5105692;27;61734;-79
2023/01/09 05:15:30;;;;;;;;;0.25;0.00;;;;;;;;5104863;27;61922;-80
2023/01/09 05:17:55;;;;;;;;;1.00;0.00;;;;;;;;5106537;27;61831;-79
2023/01/09 05:20:21;;;;;;;;;1.00;0.00;;;;;;;;5106281;27;61723;-79
2023/01/09 05:22:46;;;;;;;;;2.50;0.00;;;;;;;;5104043;27;63591;-79
2023/01/09 05:25:11;;;;;;;;;0.00;0.00;;;;;;;;5106283;27;61761;-80
2023/01/09 05:27:37;;;;;;;;;0.50;0.00;;;;;;;;5104454;27;61854;-81
2023/01/09 05:30:02;;;;;;;;;0.00;0.00;;;;;;;;5106166;27;61868;-80
2023/01/09 05:32:27;;;;;;;;;0.75;0.25;;;;;;;;5104081;27;63623;-80
2023/01/09 05:34:52;;;;;;;;;0.00;0.00;;;;;;;;5106206;27;61739;-79
2023/01/09 05:37:18;;;;;;;;;1.75;0.00;;;;;;;;5104512;27;61927;-80
2023/01/09 05:39:43;;;;;;;;;2.25;0.00;;;;;;;;5104674;27;62078;-80
2023/01/09 05:42:08;;;;;;;;;0.00;0.00;;;;;;;;5085419;27;61723;-79
2023/01/09 05:44:35;;;;;;;;;1.00;0.00;;;;;;;;5085424;28;61980;-80
2023/01/09 05:47:05;;;;;;;;;0.00;0.00;;;;;;;;5085649;28;61882;-80
2023/01/09 05:49:30;;;;;;;;;0.00;0.00;;;;;;;;5085046;28;62071;-79
2023/01/09 05:51:55;;;;;;;;;0.00;0.00;;;;;;;;5083333;28;64897;-80
2023/01/09 05:54:20;;;;;;;;;0.00;0.00;;;;;;;;5085097;28;61745;-79
2023/01/09 05:56:46;;;;;;;;;2.00;1.00;;;;;;;;5085207;28;61818;-81
2023/01/09 05:59:11;;;;;;;;;2.00;0.00;;;;;;;;5085577;28;62045;-80
2023/01/09 06:01:36;;;;;;;;;1.00;0.00;;;;;;;;5082853;28;63665;-80
2023/01/09 06:04:01;;;;;;;;;0.00;0.00;;;;;;;;5085233;28;61992;-83
2023/01/09 06:06:27;;;;;;;;;0.00;0.00;;;;;;;;5083401;28;62019;-83
2023/01/09 06:08:52;;;;;;;;;2.75;0.00;;;;;;;;5082166;28;61983;-83
2023/01/09 06:11:17;;;;;;;;;1.00;0.00;;;;;;;;5084298;28;63098;-82
2023/01/09 06:13:42;;;;;;;;;2.25;0.00;;;;;;;;5083067;27;61706;-84
2023/01/09 06:16:08;;;;;;;;;0.50;0.00;;;;;;;;5083460;28;61696;-84
2023/01/09 06:18:33;;;;;;;;;0.00;0.00;;;;;;;;5084757;28;62239;-85
2023/01/09 06:20:58;;;;;;;;;3.50;0.00;;;;;;;;5083975;28;63617;-84
2023/01/09 06:23:24;;;;;;;;;0.00;0.00;;;;;;;;5084336;28;61988;-84
2023/01/09 06:25:49;;;;;;;;;0.00;0.00;;;;;;;;5082148;28;61911;-84
2023/01/09 06:28:14;;;;;;;;;0.00;0.00;;;;;;;;5075070;27;61868;-85
2023/01/09 06:30:39;;;;;;;;;0.00;0.00;;;;;;;;5071217;28;64903;-84
2023/01/09 06:33:05;;;;;;;;;0.00;0.00;;;;;;;;5066033;28;61781;-83
2023/01/09 06:35:30;;;;;;;;;0.25;0.25;;;;;;;;5082774;28;61733;-80
2023/01/09 06:37:55;;;;;;;;;3.00;1.00;;;;;;;;5084409;28;61953;-81
2023/01/09 06:40:21;;;;;;;;;0.00;0.00;;;;;;;;5083117;27;62015;-80
2023/01/09 06:42:46;;;;;;;;;0.00;0.00;;;;;;;;5082942;28;61965;-80
2023/01/09 06:45:12;;;;;;;;;0.00;0.00;;;;;;;;5082604;28;61961;-80
2023/01/09 06:47:38;;;;;;;;;0.25;0.00;;;;;;;;5083058;27;61834;-81
2023/01/09 06:50:04;;;;;;;;;0.25;0.00;;;;;;;;5080617;28;64585;-80
2023/01/09 06:52:29;;;;;;;;;0.00;0.00;;;;;;;;5081365;28;61718;-83
2023/01/09 06:54:54;;;;;;;;;0.25;0.25;;;;;;;;5081628;27;61736;-81
2023/01/09 06:57:20;;;;;;;;;0.00;0.00;;;;;;;;5082225;28;61774;-81
2023/01/09 06:59:45;;;;;;;;;0.00;0.00;;;;;;;;5082105;27;62055;-81
2023/01/09 07:02:16;;;;;;;;;1.50;0.00;;;;;;;;5080925;28;61798;-82
2023/01/09 07:04:41;;;;;;;;;0.00;0.00;;;;;;;;5081544;28;61797;-81
2023/01/09 07:07:06;;;;;;;;;0.00;0.00;;;;;;;;5083409;28;61850;-82
2023/01/09 07:09:31;;;;;;;;;0.00;0.00;;;;;;;;5082749;28;62662;-81
2023/01/09 07:11:56;;;;;;;;;0.00;0.00;;;;;;;;5082065;28;61851;-81
2023/01/09 07:14:22;;;;;;;;;3.00;0.00;;;;;;;;5082382;28;61757;-81
2023/01/09 07:16:47;;;;;;;;;0.00;0.00;;;;;;;;5083397;28;62107;-81
2023/01/09 07:19:12;;;;;;;;;0.50;0.00;;;;;;;;5081005;28;64483;-80
2023/01/09 07:21:37;;;;;;;;;1.25;0.50;;;;;;;;5083778;28;61929;-81
2023/01/09 07:24:03;;;;;;;;;0.00;0.00;;;;;;;;5081460;28;61756;-80
2023/01/09 07:26:28;;;;;;;;;1.25;0.00;;;;;;;;5083077;28;61829;-81
2023/01/09 07:28:53;;;;;;;;;0.00;0.00;;;;;;;;5080682;28;64561;-81
2023/01/09 07:31:18;;;;;;;;;4.00;0.00;;;;;;;;5081738;28;61888;-80
2023/01/09 07:33:44;;;;;;;;;0.25;0.00;;;;;;;;5082150;28;61838;-80
2023/01/09 07:36:10;;;;;;;;;1.00;0.00;;;;;;;;5082341;28;61905;-81
2023/01/09 07:38:35;;;;;;;;;0.00;0.00;;;;;;;;5081593;28;63693;-82
2023/01/09 07:41:01;;;;;;;;;0.00;0.00;;;;;;;;5091884;27;61809;-81
2023/01/09 07:43:26;;;;;;;;;0.25;0.00;;;;;;;;5102007;27;61852;-80
2023/01/09 07:45:51;;;;;;;;;0.00;0.00;;;;;;;;5103355;27;61792;-81
2023/01/09 07:48:16;;;;;;;;;1.00;0.00;;;;;;;;5101715;27;64015;-81
2023/01/09 07:50:42;;;;;;;;;0.25;0.00;;;;;;;;5101929;27;61736;-82
2023/01/09 07:53:07;;;;;;;;;1.75;0.00;;;;;;;;5101969;27;61819;-82
2023/01/09 07:55:32;;;;;;;;;2.50;0.00;;;;;;;;5102086;27;61807;-83
2023/01/09 07:57:57;;;;;;;;;0.00;0.00;;;;;;;;5082152;27;61972;-82
2023/01/09 08:00:23;;;;;;;;;0.25;0.25;;;;;;;;5082532;28;61772;-80
2023/01/09 08:02:52;;;;;;;;;0.50;0.00;;;;;;;;5081419;28;61801;-82
2023/01/09 08:05:17;;;;;;;;;0.00;0.00;;;;;;;;5081574;28;62044;-81
2023/01/09 08:07:43;;;;;;;;;0.00;0.00;;;;;;;;5081935;27;61907;-82
2023/01/09 08:10:09;;;;;;;;;0.00;0.00;;;;;;;;5082323;28;62029;-82
2023/01/09 08:12:34;;;;;;;;;0.00;0.00;;;;;;;;5081799;28;61983;-82
2023/01/09 08:15:00;;;;;;;;;0.50;0.50;;;;;;;;5082834;27;61769;-81
2023/01/09 08:17:25;;;;;;;;;0.00;0.00;;;;;;;;5080888;28;63543;-81
2023/01/09 08:19:50;;;;;;;;;4.75;0.00;;;;;;;;5082528;27;61957;-81
2023/01/09 08:22:15;;;;;;;;;0.00;0.00;;;;;;;;5081274;28;62170;-82
2023/01/09 08:24:41;;;;;;;;;0.00;0.00;;;;;;;;5082977;28;61852;-82
2023/01/09 08:27:06;;;;;;;;;3.00;0.00;;;;;;;;5080323;28;63787;-82
2023/01/09 08:29:32;;;;;;;;;0.00;0.00;;;;;;;;5080886;28;61920;-81
2023/01/09 08:31:57;;;;;;;;;0.00;0.00;;;;;;;;5081620;27;61862;-82
2023/01/09 08:34:22;;;;;;;;;0.00;0.00;;;;;;;;5082751;28;61798;-82
2023/01/09 08:36:47;;;;;;;;;0.00;0.00;;;;;;;;5080360;28;63727;-82
2023/01/09 08:39:13;;;;;;;;;0.00;0.00;;;;;;;;5081096;28;62089;-82
2023/01/09 08:47:06;;;;;;;;;0.00;0.00;;;;;;;;5081436;28;61832;-82
2023/01/09 08:49:35;;;;;;;;;0.00;0.00;;;;;;;;5080767;28;61993;-81
2023/01/09 08:52:01;;;;;;;;;0.00;0.00;;;;;;;;5082572;28;61778;-82
2023/01/09 08:54:26;;;;;;;;;0.00;0.00;;;;;;;;5082620;28;61973;-81
2023/01/09 08:56:51;;;;;;;;;2.50;1.00;;;;;;;;5081435;28;63210;-80
2023/01/09 08:59:17;;;;;;;;;0.75;0.00;;;;;;;;5081771;28;61869;-82
2023/01/09 09:01:42;;;;;;;;;0.00;0.00;;;;;;;;5082253;28;62058;-81
2023/01/09 09:04:08;;;;;;;;;0.00;0.00;;;;;;;;5080908;28;62195;-81
2023/01/09 09:06:33;;;;;;;;;0.00;0.00;;;;;;;;5081481;28;61859;-81
2023/01/09 09:09:02;;;;;;;;;0.00;0.00;;;;;;;;5080420;28;61828;-81
2023/01/09 09:11:28;;;;;;;;;0.00;0.00;;;;;;;;5081483;28;61873;-81
2023/01/09 09:13:54;;;;;;;;;0.00;0.00;;;;;;;;5082161;27;61904;-82
2023/01/09 09:16:19;;;;;;;;;0.75;0.00;;;;;;;;5080122;28;63484;-82
2023/01/09 09:18:44;;;;;;;;;0.00;0.00;;;;;;;;5080322;28;61986;-81
2023/01/09 09:21:10;;;;;;;;;0.00;0.00;;;;;;;;5081980;28;62113;-81
2023/01/09 09:23:35;;;;;;;;;1.00;0.00;;;;;;;;5080769;28;61905;-81
2023/01/09 09:26:00;;;;;;;;;0.00;0.00;;;;;;;;5081324;28;61999;-82
2023/01/09 09:28:26;;;;;;;;;2.75;1.25;;;;;;;;5081400;28;61767;-82
2023/01/09 09:30:51;;;;;;;;;2.00;0.00;;;;;;;;5080444;28;61760;-82
2023/01/09 09:33:16;;;;;;;;;2.00;0.00;;;;;;;;5082005;28;62196;-82
2023/01/09 09:35:41;;;;;;;;;1.00;0.00;;;;;;;;5081461;28;61778;-82
2023/01/09 09:38:07;;;;;;;;;0.00;0.00;;;;;;;;5081836;28;61703;-82
2023/01/09 09:40:44;;;;;;;;;0.75;0.00;;;;;;;;5081792;27;61997;-82
2023/01/09 09:46:05;;;;;;;;;2.00;0.75;;;;;;;;5084552;28;61915;-82
2023/01/09 09:48:36;;;;;;;;;1.00;0.00;;;;;;;;5085172;28;62092;-82
2023/01/09 09:51:23;;;;;;;;;0.00;0.00;;;;;;;;5085001;28;62406;-82
2023/01/09 09:54:08;;;;;;;;;0.00;0.00;;;;;;;;5084165;28;61967;-82
2023/01/09 09:56:36;;;;;;;;;0.25;0.00;;;;;;;;5083899;28;63052;-81
2023/01/09 09:59:10;;;;;;;;;0.00;0.00;;;;;;;;5084702;28;61845;-83
2023/01/09 10:01:38;;;;;;;;;0.00;0.00;;;;;;;;5083746;28;61798;-82
2023/01/09 10:04:09;;;;;;;;;0.00;0.00;;;;;;;;5085216;28;61964;-82
2023/01/09 10:06:44;;;;;;;;;0.00;0.00;;;;;;;;5083015;28;64164;-83
2023/01/09 10:09:28;;;;;;;;;0.00;0.00;;;;;;;;5083298;28;61711;-83
2023/01/09 10:11:54;;;;;;;;;0.00;0.00;;;;;;;;5084789;27;61730;-82
2023/01/09 10:14:19;;;;;;;;;0.00;0.00;;;;;;;;5084756;28;62130;-82
2023/01/09 10:16:47;;;;;;;;;0.00;0.00;;;;;;;;5084096;28;63228;-82
2023/01/09 10:19:20;;;;;;;;;0.75;0.75;;;;;;;;5083069;28;61765;-83
2023/01/09 10:21:48;;;;;;;;;0.00;0.00;;;;;;;;5084909;28;61697;-82
2023/01/09 10:24:13;;;;;;;;;1.00;0.00;;;;;;;;5084874;28;61877;-82
2023/01/09 10:26:46;;;;;;;;;2.25;0.50;;;;;;;;5083642;28;63053;-82
2023/01/09 10:29:11;;;;;;;;;0.00;0.00;;;;;;;;5084471;28;61944;-83
2023/01/09 10:31:46;;;;;;;;;1.50;0.50;;;;;;;;5083102;28;61714;-83
2023/01/09 10:34:17;;;;;;;;;1.00;0.00;;;;;;;;5083358;28;61856;-82
2023/01/09 10:36:50;;;;;;;;;0.00;0.00;;;;;;;;5082635;28;63891;-82
2023/01/09 10:39:22;;;;;;;;;0.00;0.00;;;;;;;;5084280;28;61897;-82
2023/01/09 10:42:10;;;;;;;;;0.00;0.00;;;;;;;;5084167;27;61820;-83
2023/01/09 10:44:38;;;;;;;;;0.75;0.00;;;;;;;;5077216;28;61816;-82
2023/01/09 10:47:15;;;;;;;;;0.00;0.00;;;;;;;;5082388;28;63579;-82
2023/01/09 10:49:40;;;;;;;;;0.00;0.00;;;;;;;;5082411;28;61873;-82
2023/01/09 10:52:06;;;;;;;;;0.25;0.25;;;;;;;;5084073;28;61889;-81
2023/01/09 10:54:31;;;;;;;;;0.00;0.00;;;;;;;;5083644;28;61805;-82
2023/01/09 10:57:05;;;;;;;;;0.50;0.00;;;;;;;;5082978;28;63214;-81
2023/01/09 10:59:30;;;;;;;;;0.00;0.00;;;;;;;;5082566;28;61777;-82
2023/01/09 11:01:56;;;;;;;;;0.00;0.00;;;;;;;;5084245;28;61822;-83
2023/01/09 11:04:39;;;;;;;;;0.75;0.00;;;;;;;;5082348;28;62153;-82
2023/01/09 11:07:11;;;;;;;;;2.00;0.00;;;;;;;;5082922;28;61940;-82
2023/01/09 11:09:55;;;;;;;;;0.00;0.00;;;;;;;;5081773;28;61989;-82
2023/01/09 11:12:28;;;;;;;;;0.00;0.00;;;;;;;;5082498;28;61951;-82
2023/01/09 11:14:54;;;;;;;;;0.00;0.00;;;;;;;;5084008;27;61713;-82
2023/01/09 11:17:20;;;;;;;;;0.00;0.00;;;;;;;;5081919;28;64701;-82
2023/01/09 11:20:05;;;;;;;;;0.00;0.00;;;;;;;;5081933;28;61879;-83
2023/01/09 11:22:43;;;;;;;;;0.00;0.00;;;;;;;;5083353;28;61856;-82
2023/01/09 11:25:11;;;;;;;;;0.00;0.00;;;;;;;;5082278;28;61745;-82
2023/01/09 11:27:36;;;;;;;;;0.00;0.00;;;;;;;;5082675;28;61995;-81
2023/01/09 11:30:08;;;;;;;;;0.00;0.00;;;;;;;;5083586;28;61925;-82
2023/01/09 11:32:33;;;;;;;;;0.50;0.00;;;;;;;;5083380;28;61788;-82
2023/01/09 11:34:59;;;;;;;;;0.50;0.00;;;;;;;;5082438;28;61899;-82
2023/01/09 11:37:26;;;;;;;;;0.00;0.00;;;;;;;;5081471;28;65207;-82
2023/01/09 11:39:52;;;;;;;;;0.00;0.00;;;;;;;;5083308;28;61909;-83
2023/01/09 11:42:49;;;;;;;;;0.00;0.00;;;;;;;;5101700;27;61741;-81
2023/01/09 11:45:14;;;;;;;;;1.00;0.00;;;;;;;;5103777;27;61869;-83
2023/01/09 11:47:39;;;;;;;;;0.00;0.00;;;;;;;;5101578;27;63954;-82
2023/01/09 11:50:22;;;;;;;;;1.00;0.00;;;;;;;;5103430;27;61754;-82
2023/01/09 11:53:08;;;;;;;;;0.00;0.00;;;;;;;;5102091;27;61823;-82
2023/01/09 11:55:33;;;;;;;;;1.00;0.00;;;;;;;;5102063;27;61744;-82
2023/01/09 11:57:58;;;;;;;;;0.00;0.00;;;;;;;;5101641;27;63524;-81
2023/01/09 12:00:26;;;;;;;;;0.00;0.00;;;;;;;;5102000;27;61827;-82
2023/01/09 12:03:18;;;;;;;;;0.00;0.00;;;;;;;;5103443;27;61755;-82
2023/01/09 12:05:53;;;;;;;;;0.00;0.00;;;;;;;;5080225;28;61997;-82
2023/01/09 12:08:19;;;;;;;;;2.50;0.00;;;;;;;;5078418;28;62065;-82
2023/01/09 12:11:10;;;;;;;;;0.00;0.00;;;;;;;;5062814;28;62069;-82
2023/01/09 12:13:38;;;;;;;;;0.00;0.00;;;;;;;;5080206;28;61810;-81
2023/01/09 12:16:06;;;;;;;;;0.75;0.00;;;;;;;;5063571;28;61979;-82
2023/01/09 12:18:31;;;;;;;;;1.00;1.00;;;;;;;;5079657;28;61966;-82
2023/01/09 12:21:15;;;;;;;;;0.50;0.00;;;;;;;;5079604;28;62196;-82
2023/01/09 12:23:58;;;;;;;;;0.00;0.00;;;;;;;;5062446;28;61866;-83
2023/01/09 12:26:29;;;;;;;;;1.00;0.00;;;;;;;;5062734;28;61923;-83
2023/01/09 12:29:04;;;;;;;;;0.25;0.25;;;;;;;;5078980;28;62308;-82
2023/01/09 12:31:42;;;;;;;;;0.75;0.00;;;;;;;;5062630;28;61864;-82
2023/01/09 12:34:10;;;;;;;;;2.25;0.00;;;;;;;;5063166;28;61976;-82
2023/01/09 12:36:35;;;;;;;;;0.00;0.00;;;;;;;;5062808;28;61973;-82
2023/01/09 12:39:23;;;;;;;;;1.00;0.00;;;;;;;;5062360;28;64691;-82
2023/01/09 12:41:48;;;;;;;;;0.00;0.00;;;;;;;;5002502;28;61773;-82
2023/01/09 12:44:32;;;;;;;;;2.00;0.00;;;;;;;;5019398;28;61941;-82
2023/01/09 12:47:07;;;;;;;;;4.75;0.00;;;;;;;;5002887;28;62384;-82
2023/01/09 12:49:34;;;;;;;;;0.00;0.00;;;;;;;;5002108;28;64827;-82
2023/01/09 12:52:16;;;;;;;;;1.25;0.00;;;;;;;;5018729;28;61833;-82
2023/01/09 12:54:53;;;;;;;;;0.00;0.00;;;;;;;;5002909;28;62062;-82
2023/01/09 12:57:24;;;;;;;;;0.00;0.00;;;;;;;;5019599;28;61988;-82
2023/01/09 12:59:55;;;;;;;;;0.00;0.00;;;;;;;;5018941;28;62070;-82
2023/01/09 13:02:20;;;;;;;;;0.50;0.00;;;;;;;;5019342;28;61830;-81
2023/01/09 13:04:53;;;;;;;;;0.00;0.00;;;;;;;;5019430;28;61921;-82
2023/01/09 13:07:41;;;;;;;;;1.00;0.00;;;;;;;;5002978;28;62006;-82
2023/01/09 13:10:25;;;;;;;;;1.75;0.00;;;;;;;;5026839;28;63245;-81
2023/01/09 13:12:52;;;;;;;;;0.00;0.00;;;;;;;;5038839;28;61910;-81
2023/01/09 13:15:29;;;;;;;;;0.00;0.00;;;;;;;;5039420;28;62010;-81
2023/01/09 13:18:04;;;;;;;;;0.00;0.00;;;;;;;;5029441;27;61709;-81
2023/01/09 13:20:29;;;;;;;;;0.00;0.00;;;;;;;;5103741;27;64162;-80
2023/01/09 13:22:54;;;;;;;;;1.00;1.00;;;;;;;;5104214;27;61770;-79
2023/01/09 13:25:32;;;;;;;;;0.00;0.00;;;;;;;;5106347;27;62232;-80
2023/01/09 13:28:04;;;;;;;;;2.50;1.00;;;;;;;;5106259;27;61996;-81
2023/01/09 13:30:56;;;;;;;;;0.00;0.00;;;;;;;;5105489;27;62676;-81
2023/01/09 13:33:29;;;;;;;;;0.50;0.50;;;;;;;;5102500;27;61893;-80
2023/01/09 13:35:56;;;;;;;;;2.00;1.00;;;;;;;;5105713;27;62038;-81
2023/01/09 13:38:29;;;;;;;;;0.00;0.00;;;;;;;;5106394;27;61932;-81
2023/01/09 13:43:56;;;;;;;;;1.75;0.00;;;;;;;;5085237;28;61902;-81
2023/01/09 13:46:21;;;;;;;;;6.00;0.00;;;;;;;;5085514;28;62119;-81
2023/01/09 13:48:47;;;;;;;;;0.75;0.00;;;;;;;;5085136;27;61700;-80
2023/01/09 13:51:31;;;;;;;;;0.00;0.00;;;;;;;;5083303;28;63756;-81
2023/01/09 13:53:57;;;;;;;;;0.50;0.25;;;;;;;;5085313;27;61827;-81
2023/01/09 13:56:22;;;;;;;;;0.00;0.00;;;;;;;;5084048;28;62154;-84
2023/01/09 13:58:53;;;;;;;;;0.00;0.00;;;;;;;;5084015;28;61888;-81
2023/01/09 14:01:21;;;;;;;;;1.50;0.00;;;;;;;;5084734;28;63231;-81
2023/01/09 14:04:06;;;;;;;;;1.25;0.25;;;;;;;;5084892;28;61925;-82
2023/01/09 14:06:32;;;;;;;;;0.00;0.00;;;;;;;;5085183;28;61913;-82
2023/01/09 14:09:23;;;;;;;;;1.00;1.00;;;;;;;;5084825;28;61892;-82
2023/01/09 14:12:01;;;;;;;;;1.00;0.00;;;;;;;;5083065;28;63050;-82
2023/01/09 14:14:27;;;;;;;;;0.00;0.00;;;;;;;;5084874;28;62014;-82
2023/01/09 14:16:53;;;;;;;;;1.75;1.00;;;;;;;;5085125;28;62014;-83
2023/01/09 14:19:27;;;;;;;;;0.75;0.75;;;;;;;;5084596;28;61721;-83
2023/01/09 14:21:54;;;;;;;;;2.00;0.25;;;;;;;;5084443;28;61902;-85
2023/01/09 14:24:22;;;;;;;;;0.75;0.75;;;;;;;;5085361;28;61757;-85
2023/01/09 14:26:53;;;;;;;;;3.25;1.00;;;;;;;;5087060;28;61653;-85
2023/01/09 14:29:31;;;;;;;;;0.50;0.00;;;;;;;;5085598;28;62821;-83
2023/01/09 14:32:15;;;;;;;;;0.00;0.00;;;;;;;;5082512;28;63797;-83
2023/01/09 14:34:41;;;;;;;;;2.00;0.00;;;;;;;;5086446;27;62176;-84
2023/01/09 14:37:11;;;;;;;;;3.00;0.00;;;;;;;;5084942;28;61955;-84
2023/01/09 14:39:39;;;;;;;;;3.00;0.00;;;;;;;;5087631;28;61794;-84
2023/01/09 14:42:05;;;;;;;;;0.75;0.00;;;;;;;;5084808;27;63612;-85
2023/01/09 14:44:49;;;;;;;;;2.25;0.75;;;;;;;;5087166;28;61638;-84
2023/01/09 14:47:18;;;;;;;;;0.00;0.00;;;;;;;;5086812;28;61947;-83
2023/01/09 14:49:45;;;;;;;;;2.00;0.00;;;;;;;;5087980;28;61980;-84
2023/01/09 14:52:20;;;;;;;;;0.50;0.50;;;;;;;;5086131;28;63611;-85
2023/01/09 14:54:46;;;;;;;;;0.25;0.00;;;;;;;;5087212;28;62048;-84
2023/01/09 14:57:25;;;;;;;;;1.00;0.00;;;;;;;;5085598;28;61881;-84
2023/01/09 14:59:54;;;;;;;;;0.50;0.50;;;;;;;;5086732;28;61951;-84
2023/01/09 15:02:19;;;;;;;;;2.00;0.00;;;;;;;;5086276;28;63100;-84
2023/01/09 15:04:45;;;;;;;;;1.00;1.00;;;;;;;;5084751;28;61952;-84